sensor_id;sensor_type;location;lat;lon;timestamp;pressure;altitude;pressure_sealevel;temperature;humidity
67840;BME280;54636;51.684;5.142;2023-03-18T00:00:41;100793.28;;;11.52;92.70
67840;BME280;54636;51.684;5.142;2023-03-18T00:03:07;100790.28;;;11.50;92.83
67840;BME280;54636;51.684;5.142;2023-03-18T00:05:33;100787.59;;;11.56;92.89
67840;BME280;54636;51.684;5.142;2023-03-18T00:07:59;100795.03;;;11.55;93.03
67840;BME280;54636;51.684;5.142;2023-03-18T00:10:26;100793.31;;;11.58;92.77
67840;BME280;54636;51.684;5.142;2023-03-18T00:12:51;100795.28;;;11.58;92.53
67840;BME280;54636;51.684;5.142;2023-03-18T00:15:18;100792.31;;;11.55;92.61
67840;BME280;54636;51.684;5.142;2023-03-18T00:17:44;100775.63;;;11.37;92.66
67840;BME280;54636;51.684;5.142;2023-03-18T00:20:11;100797.94;;;11.46;92.68
67840;BME280;54636;51.684;5.142;2023-03-18T00:22:38;100795.94;;;11.41;92.99
67840;BME280;54636;51.684;5.142;2023-03-18T00:25:06;100766.91;;;11.27;93.62
67840;BME280;54636;51.684;5.142;2023-03-18T00:27:34;100776.81;;;11.30;93.53
67840;BME280;54636;51.684;5.142;2023-03-18T00:30:00;100782.78;;;11.34;94.05
67840;BME280;54636;51.684;5.142;2023-03-18T00:32:26;100781.03;;;11.31;94.10
67840;BME280;54636;51.684;5.142;2023-03-18T00:34:53;100794.47;;;11.46;93.78
67840;BME280;54636;51.684;5.142;2023-03-18T00:37:19;100796.94;;;11.44;93.68
67840;BME280;54636;51.684;5.142;2023-03-18T00:39:59;100797.41;;;11.42;94.35
67840;BME280;54636;51.684;5.142;2023-03-18T00:42:33;100795.94;;;11.41;94.14
67840;BME280;54636;51.684;5.142;2023-03-18T00:45:07;100792.66;;;11.32;93.92
67840;BME280;54636;51.684;5.142;2023-03-18T00:47:34;100794.16;;;11.33;94.08
67840;BME280;54636;51.684;5.142;2023-03-18T00:50:00;100803.31;;;11.35;93.70
67840;BME280;54636;51.684;5.142;2023-03-18T00:52:25;100805.78;;;11.33;93.80
67840;BME280;54636;51.684;5.142;2023-03-18T00:54:51;100808.50;;;11.33;94.06
67840;BME280;54636;51.684;5.142;2023-03-18T00:57:17;100788.63;;;11.21;94.06
67840;BME280;54636;51.684;5.142;2023-03-18T00:59:43;100813.94;;;11.33;93.72
67840;BME280;54636;51.684;5.142;2023-03-18T01:02:08;100797.53;;;11.22;93.79
67840;BME280;54636;51.684;5.142;2023-03-18T01:04:34;100801.31;;;11.30;93.96
67840;BME280;54636;51.684;5.142;2023-03-18T01:06:59;100807.97;;;11.29;94.10
67840;BME280;54636;51.684;5.142;2023-03-18T01:09:25;100789.59;;;11.18;94.14
67840;BME280;54636;51.684;5.142;2023-03-18T01:11:50;100806.22;;;11.26;94.43
67840;BME280;54636;51.684;5.142;2023-03-18T01:14:17;100799.56;;;11.27;94.60
67840;BME280;54636;51.684;5.142;2023-03-18T01:16:43;100800.28;;;11.28;94.50
67840;BME280;54636;51.684;5.142;2023-03-18T01:19:09;100791.81;;;11.14;94.76
67840;BME280;54636;51.684;5.142;2023-03-18T01:21:34;100802.00;;;11.25;94.88
67840;BME280;54636;51.684;5.142;2023-03-18T01:24:00;100798.31;;;11.28;94.69
67840;BME280;54636;51.684;5.142;2023-03-18T01:26:26;100800.28;;;11.28;95.03
67840;BME280;54636;51.684;5.142;2023-03-18T01:28:51;100802.00;;;11.25;95.11
67840;BME280;54636;51.684;5.142;2023-03-18T01:31:17;100787.13;;;11.15;95.01
67840;BME280;54636;51.684;5.142;2023-03-18T01:33:43;100805.47;;;11.26;95.08
67840;BME280;54636;51.684;5.142;2023-03-18T01:36:10;100796.31;;;11.23;95.12
67840;BME280;54636;51.684;5.142;2023-03-18T01:38:35;100804.72;;;11.25;94.98
67840;BME280;54636;51.684;5.142;2023-03-18T01:41:02;100794.56;;;11.20;95.14
67840;BME280;54636;51.684;5.142;2023-03-18T01:43:37;100778.91;;;11.09;94.75
67840;BME280;54636;51.684;5.142;2023-03-18T01:46:43;100804.25;;;11.27;94.41
67840;BME280;54636;51.684;5.142;2023-03-18T01:54:31;100808.44;;;11.28;94.91
67840;BME280;54636;51.684;5.142;2023-03-18T01:56:57;100802.78;;;11.31;93.51
67840;BME280;54636;51.684;5.142;2023-03-18T01:59:26;100788.59;;;11.16;95.13
67840;BME280;54636;51.684;5.142;2023-03-18T02:01:57;100804.75;;;11.31;94.95
67840;BME280;54636;51.684;5.142;2023-03-18T02:04:29;100803.28;;;11.30;95.51
67840;BME280;54636;51.684;5.142;2023-03-18T02:06:57;100806.00;;;11.30;95.79
67840;BME280;54636;51.684;5.142;2023-03-18T02:09:22;100812.91;;;11.31;95.95
67840;BME280;54636;51.684;5.142;2023-03-18T02:11:49;100803.00;;;11.28;96.69
67840;BME280;54636;51.684;5.142;2023-03-18T02:14:20;100805.72;;;11.28;96.66
67840;BME280;54636;51.684;5.142;2023-03-18T02:16:54;100808.94;;;11.26;96.69
67840;BME280;54636;51.684;5.142;2023-03-18T02:19:45;100812.44;;;11.32;95.95
67840;BME280;54636;51.684;5.142;2023-03-18T02:22:25;100751.63;;;10.87;96.48
67840;BME280;54636;51.684;5.142;2023-03-18T02:27:24;100811.91;;;11.28;96.77
67840;BME280;54636;51.684;5.142;2023-03-18T02:29:53;100780.16;;;11.08;97.72
67840;BME280;54636;51.684;5.142;2023-03-18T02:32:26;100807.66;;;11.21;97.79
67840;BME280;54636;51.684;5.142;2023-03-18T02:34:52;100792.06;;;11.16;97.93
67840;BME280;54636;51.684;5.142;2023-03-18T02:37:18;100807.66;;;11.21;98.12
67840;BME280;54636;51.684;5.142;2023-03-18T02:39:44;100809.44;;;11.25;98.65
67840;BME280;54636;51.684;5.142;2023-03-18T02:42:11;100794.25;;;11.12;98.61
67840;BME280;54636;51.684;5.142;2023-03-18T02:44:44;100817.84;;;11.27;99.27
67840;BME280;54636;51.684;5.142;2023-03-18T02:47:15;100788.56;;;11.05;99.12
67840;BME280;54636;51.684;5.142;2023-03-18T02:49:41;100826.03;;;11.32;99.43
67840;BME280;54636;51.684;5.142;2023-03-18T02:52:07;100829.28;;;11.36;99.60
67840;BME280;54636;51.684;5.142;2023-03-18T02:54:33;100832.44;;;11.29;99.67
67840;BME280;54636;51.684;5.142;2023-03-18T02:56:58;100832.69;;;11.31;99.79
67840;BME280;54636;51.684;5.142;2023-03-18T02:59:24;100825.00;;;11.24;100.00
67840;BME280;54636;51.684;5.142;2023-03-18T03:01:51;100829.47;;;11.27;100.00
67840;BME280;54636;51.684;5.142;2023-03-18T03:04:19;100836.88;;;11.27;100.00
67840;BME280;54636;51.684;5.142;2023-03-18T03:06:46;100820.75;;;11.17;100.00
67840;BME280;54636;51.684;5.142;2023-03-18T03:09:13;100835.91;;;11.30;100.00
67840;BME280;54636;51.684;5.142;2023-03-18T03:11:40;100847.03;;;11.32;100.00
67840;BME280;54636;51.684;5.142;2023-03-18T03:14:07;100848.75;;;11.29;100.00
67840;BME280;54636;51.684;5.142;2023-03-18T03:16:34;100850.25;;;11.30;100.00
67840;BME280;54636;51.684;5.142;2023-03-18T03:19:00;100844.50;;;11.22;100.00
67840;BME280;54636;51.684;5.142;2023-03-18T03:21:26;100858.38;;;11.25;100.00
67840;BME280;54636;51.684;5.142;2023-03-18T03:23:52;100849.19;;;11.22;100.00
67840;BME280;54636;51.684;5.142;2023-03-18T03:26:19;100856.88;;;11.23;100.00
67840;BME280;54636;51.684;5.142;2023-03-18T03:28:45;100842.66;;;11.08;100.00
67840;BME280;54636;51.684;5.142;2023-03-18T03:31:10;100840.22;;;11.10;100.00
67840;BME280;54636;51.684;5.142;2023-03-18T03:33:40;100846.88;;;11.09;100.00
67840;BME280;54636;51.684;5.142;2023-03-18T03:36:10;100862.25;;;11.18;100.00
67840;BME280;54636;51.684;5.142;2023-03-18T03:38:37;100870.91;;;11.16;100.00
67840;BME280;54636;51.684;5.142;2023-03-18T03:41:03;100849.56;;;11.04;100.00
67840;BME280;54636;51.684;5.142;2023-03-18T03:43:29;100870.16;;;11.16;100.00
67840;BME280;54636;51.684;5.142;2023-03-18T03:45:55;100852.50;;;11.00;100.00
67840;BME280;54636;51.684;5.142;2023-03-18T03:48:20;100870.13;;;11.10;100.00
67840;BME280;54636;51.684;5.142;2023-03-18T03:50:46;100866.88;;;11.06;100.00
67840;BME280;54636;51.684;5.142;2023-03-18T03:53:12;100867.41;;;11.10;100.00
67840;BME280;54636;51.684;5.142;2023-03-18T03:55:37;100868.34;;;11.07;100.00
67840;BME280;54636;51.684;5.142;2023-03-18T03:58:03;100850.97;;;10.94;100.00
67840;BME280;54636;51.684;5.142;2023-03-18T04:00:29;100865.91;;;11.09;100.00
67840;BME280;54636;51.684;5.142;2023-03-18T04:02:55;100846.03;;;10.92;100.00
67840;BME280;54636;51.684;5.142;2023-03-18T04:05:22;100841.06;;;10.91;100.00
67840;BME280;54636;51.684;5.142;2023-03-18T04:07:49;100869.09;;;11.02;100.00
67840;BME280;54636;51.684;5.142;2023-03-18T04:10:17;100860.84;;;10.91;100.00
67840;BME280;54636;51.684;5.142;2023-03-18T04:12:43;100858.06;;;10.85;100.00
67840;BME280;54636;51.684;5.142;2023-03-18T04:15:13;100862.84;;;10.96;100.00
67840;BME280;54636;51.684;5.142;2023-03-18T04:17:39;100850.88;;;10.82;100.00
67840;BME280;54636;51.684;5.142;2023-03-18T04:20:06;100867.00;;;10.92;100.00
67840;BME280;54636;51.684;5.142;2023-03-18T04:22:31;100873.19;;;10.92;100.00
67840;BME280;54636;51.684;5.142;2023-03-18T04:24:57;100859.25;;;10.79;100.00
67840;BME280;54636;51.684;5.142;2023-03-18T04:27:23;100882.84;;;10.93;100.00
67840;BME280;54636;51.684;5.142;2023-03-18T04:29:49;100865.72;;;10.87;100.00
67840;BME280;54636;51.684;5.142;2023-03-18T04:32:14;100876.13;;;10.88;100.00
67840;BME280;54636;51.684;5.142;2023-03-18T04:34:40;100886.03;;;10.92;100.00
67840;BME280;54636;51.684;5.142;2023-03-18T04:37:05;100888.97;;;10.88;100.00
67840;BME280;54636;51.684;5.142;2023-03-18T04:39:31;100884.00;;;10.86;100.00
67840;BME280;54636;51.684;5.142;2023-03-18T04:41:57;100903.31;;;10.88;100.00
67840;BME280;54636;51.684;5.142;2023-03-18T04:44:23;100867.28;;;10.68;100.00
67840;BME280;54636;51.684;5.142;2023-03-18T04:46:49;100900.31;;;10.86;100.00
67840;BME280;54636;51.684;5.142;2023-03-18T04:49:14;100900.09;;;10.90;100.00
67840;BME280;54636;51.684;5.142;2023-03-18T04:51:40;100898.34;;;10.87;100.00
67840;BME280;54636;51.684;5.142;2023-03-18T04:54:05;100898.03;;;10.79;100.00
67840;BME280;54636;51.684;5.142;2023-03-18T04:56:31;100907.72;;;10.86;100.00
67840;BME280;54636;51.684;5.142;2023-03-18T04:58:57;100874.69;;;10.67;100.00
67840;BME280;54636;51.684;5.142;2023-03-18T05:01:23;100883.84;;;10.70;100.00
67840;BME280;54636;51.684;5.142;2023-03-18T05:03:48;100903.25;;;10.83;100.00
67840;BME280;54636;51.684;5.142;2023-03-18T05:06:23;100902.97;;;10.81;100.00
67840;BME280;54636;51.684;5.142;2023-03-18T05:08:49;100899.25;;;10.78;100.00
67840;BME280;54636;51.684;5.142;2023-03-18T05:11:16;100912.34;;;10.80;100.00
67840;BME280;54636;51.684;5.142;2023-03-18T05:13:41;100913.38;;;10.82;100.00
67840;BME280;54636;51.684;5.142;2023-03-18T05:16:07;100907.19;;;10.82;100.00
67840;BME280;54636;51.684;5.142;2023-03-18T05:18:34;100915.28;;;10.76;100.00
67840;BME280;54636;51.684;5.142;2023-03-18T05:21:00;100899.59;;;10.66;100.00
67840;BME280;54636;51.684;5.142;2023-03-18T05:23:25;100900.34;;;10.66;100.00
67840;BME280;54636;51.684;5.142;2023-03-18T05:25:51;100925.13;;;10.74;100.00
67840;BME280;54636;51.684;5.142;2023-03-18T05:28:16;100913.38;;;10.82;100.00
67840;BME280;54636;51.684;5.142;2023-03-18T05:30:42;100912.56;;;10.76;100.00
67840;BME280;54636;51.684;5.142;2023-03-18T05:33:07;100895.66;;;10.67;100.00
67840;BME280;54636;51.684;5.142;2023-03-18T05:35:33;100895.19;;;10.68;100.00
67840;BME280;54636;51.684;5.142;2023-03-18T05:37:58;100907.59;;;10.75;100.00
67840;BME280;54636;51.684;5.142;2023-03-18T05:40:24;100875.03;;;10.54;100.00
67840;BME280;54636;51.684;5.142;2023-03-18T05:42:49;100901.59;;;10.65;100.00
67840;BME280;54636;51.684;5.142;2023-03-18T05:45:14;100903.91;;;10.52;100.00
67840;BME280;54636;51.684;5.142;2023-03-18T05:47:40;100914.28;;;10.53;100.00
67840;BME280;54636;51.684;5.142;2023-03-18T05:50:06;100924.88;;;10.51;100.00
67840;BME280;54636;51.684;5.142;2023-03-18T05:52:31;100919.94;;;10.50;100.00
67840;BME280;54636;51.684;5.142;2023-03-18T05:54:56;100908.25;;;10.44;100.00
67840;BME280;54636;51.684;5.142;2023-03-18T05:57:22;100925.00;;;10.37;100.00
67840;BME280;54636;51.684;5.142;2023-03-18T05:59:47;100919.88;;;10.24;100.00
67840;BME280;54636;51.684;5.142;2023-03-18T06:02:13;100930.75;;;10.24;100.00
67840;BME280;54636;51.684;5.142;2023-03-18T06:04:38;100938.03;;;10.18;100.00
67840;BME280;54636;51.684;5.142;2023-03-18T06:07:04;100944.53;;;10.20;100.00
67840;BME280;54636;51.684;5.142;2023-03-18T06:09:30;100939.00;;;10.15;100.00
67840;BME280;54636;51.684;5.142;2023-03-18T06:11:57;100935.66;;;10.05;100.00
67840;BME280;54636;51.684;5.142;2023-03-18T06:14:23;100952.69;;;10.06;100.00
67840;BME280;54636;51.684;5.142;2023-03-18T06:16:54;100944.00;;;10.02;100.00
67840;BME280;54636;51.684;5.142;2023-03-18T06:19:20;100929.38;;;9.79;100.00
67840;BME280;54636;51.684;5.142;2023-03-18T06:21:46;100932.81;;;9.79;100.00
67840;BME280;54636;51.684;5.142;2023-03-18T06:24:11;100949.47;;;9.87;100.00
67840;BME280;54636;51.684;5.142;2023-03-18T06:26:38;100946.94;;;9.83;100.00
67840;BME280;54636;51.684;5.142;2023-03-18T06:29:04;100937.91;;;9.72;100.00
67840;BME280;54636;51.684;5.142;2023-03-18T06:31:29;100935.31;;;9.63;100.00
67840;BME280;54636;51.684;5.142;2023-03-18T06:33:55;100959.19;;;9.79;100.00
67840;BME280;54636;51.684;5.142;2023-03-18T06:36:20;100964.16;;;9.80;100.00
67840;BME280;54636;51.684;5.142;2023-03-18T06:38:47;100935.88;;;9.67;100.00
67840;BME280;54636;51.684;5.142;2023-03-18T06:41:12;100964.25;;;9.86;100.00
67840;BME280;54636;51.684;5.142;2023-03-18T06:43:38;100952.38;;;9.83;100.00
67840;BME280;54636;51.684;5.142;2023-03-18T06:46:04;100975.34;;;10.03;100.00
67840;BME280;54636;51.684;5.142;2023-03-18T06:48:29;100961.97;;;9.99;100.00
67840;BME280;54636;51.684;5.142;2023-03-18T06:50:57;100979.44;;;10.13;100.00
67840;BME280;54636;51.684;5.142;2023-03-18T06:53:22;100955.13;;;10.04;100.00
67840;BME280;54636;51.684;5.142;2023-03-18T06:55:48;100983.28;;;10.21;100.00
67840;BME280;54636;51.684;5.142;2023-03-18T06:58:13;100981.03;;;10.19;100.00
67840;BME280;54636;51.684;5.142;2023-03-18T07:00:39;100978.19;;;10.29;100.00
67840;BME280;54636;51.684;5.142;2023-03-18T07:03:09;100971.94;;;10.22;100.00
67840;BME280;54636;51.684;5.142;2023-03-18T07:05:35;100991.41;;;10.41;100.00
67840;BME280;54636;51.684;5.142;2023-03-18T07:08:01;100979.56;;;10.39;100.00
67840;BME280;54636;51.684;5.142;2023-03-18T07:10:28;100995.56;;;10.57;100.00
67840;BME280;54636;51.684;5.142;2023-03-18T07:12:54;100989.47;;;10.62;100.00
67840;BME280;54636;51.684;5.142;2023-03-18T07:15:21;100987.88;;;10.76;100.00
67840;BME280;54636;51.684;5.142;2023-03-18T07:17:48;101001.19;;;10.94;100.00
67840;BME280;54636;51.684;5.142;2023-03-18T07:20:14;101006.00;;;11.05;100.00
67840;BME280;54636;51.684;5.142;2023-03-18T07:22:41;101005.34;;;11.15;100.00
67840;BME280;54636;51.684;5.142;2023-03-18T07:25:07;101017.06;;;11.27;100.00
67840;BME280;54636;51.684;5.142;2023-03-18T07:27:33;101014.00;;;11.40;100.00
67840;BME280;54636;51.684;5.142;2023-03-18T07:29:59;101001.44;;;11.48;100.00
67840;BME280;54636;51.684;5.142;2023-03-18T07:32:24;100995.34;;;11.59;100.00
67840;BME280;54636;51.684;5.142;2023-03-18T07:34:50;101004.34;;;11.70;100.00
67840;BME280;54636;51.684;5.142;2023-03-18T07:37:16;101019.09;;;11.90;100.00
67840;BME280;54636;51.684;5.142;2023-03-18T07:39:41;101020.84;;;11.93;100.00
67840;BME280;54636;51.684;5.142;2023-03-18T07:42:08;101021.91;;;12.01;100.00
67840;BME280;54636;51.684;5.142;2023-03-18T07:44:35;101024.84;;;11.97;100.00
67840;BME280;54636;51.684;5.142;2023-03-18T07:47:01;101026.38;;;12.04;100.00
67840;BME280;54636;51.684;5.142;2023-03-18T07:49:28;101020.72;;;12.07;100.00
67840;BME280;54636;51.684;5.142;2023-03-18T07:51:54;101036.19;;;12.27;100.00
67840;BME280;54636;51.684;5.142;2023-03-18T07:54:20;100985.28;;;12.02;100.00
67840;BME280;54636;51.684;5.142;2023-03-18T07:56:45;101027.84;;;12.47;100.00
67840;BME280;54636;51.684;5.142;2023-03-18T07:59:11;101021.97;;;12.60;100.00
67840;BME280;54636;51.684;5.142;2023-03-18T08:01:36;101016.31;;;12.69;100.00
67840;BME280;54636;51.684;5.142;2023-03-18T08:04:03;101018.88;;;12.90;100.00
67840;BME280;54636;51.684;5.142;2023-03-18T08:06:30;101021.38;;;13.04;100.00
67840;BME280;54636;51.684;5.142;2023-03-18T08:08:57;101025.09;;;13.12;100.00
67840;BME280;54636;51.684;5.142;2023-03-18T08:11:23;101009.28;;;13.22;100.00
67840;BME280;54636;51.684;5.142;2023-03-18T08:13:48;101007.59;;;13.41;100.00
67840;BME280;54636;51.684;5.142;2023-03-18T08:16:14;101006.34;;;13.59;99.67
67840;BME280;54636;51.684;5.142;2023-03-18T08:18:39;100982.78;;;13.56;98.29
67840;BME280;54636;51.684;5.142;2023-03-18T08:21:06;101021.47;;;13.94;97.04
67840;BME280;54636;51.684;5.142;2023-03-18T08:23:32;101030.63;;;14.07;97.60
67840;BME280;54636;51.684;5.142;2023-03-18T08:25:57;101018.91;;;14.29;95.06
67840;BME280;54636;51.684;5.142;2023-03-18T08:28:23;101033.75;;;14.56;93.22
67840;BME280;54636;51.684;5.142;2023-03-18T08:30:54;101025.03;;;14.63;92.14
67840;BME280;54636;51.684;5.142;2023-03-18T08:33:21;101024.03;;;14.61;90.50
67840;BME280;54636;51.684;5.142;2023-03-18T08:35:47;101028.25;;;14.67;90.98
67840;BME280;54636;51.684;5.142;2023-03-18T08:38:12;101011.59;;;14.65;89.51
67840;BME280;54636;51.684;5.142;2023-03-18T08:40:39;101033.94;;;14.75;89.55
67840;BME280;54636;51.684;5.142;2023-03-18T08:43:05;101040.66;;;14.74;88.48
67840;BME280;54636;51.684;5.142;2023-03-18T08:45:31;101036.66;;;14.75;89.22
67840;BME280;54636;51.684;5.142;2023-03-18T08:47:57;101045.59;;;14.81;89.10
67840;BME280;54636;51.684;5.142;2023-03-18T08:50:23;101034.59;;;14.92;87.90
67840;BME280;54636;51.684;5.142;2023-03-18T08:52:54;101036.75;;;15.05;86.15
67840;BME280;54636;51.684;5.142;2023-03-18T08:55:21;101009.06;;;14.78;86.81
67840;BME280;54636;51.684;5.142;2023-03-18T08:57:49;101045.97;;;15.02;86.78
67840;BME280;54636;51.684;5.142;2023-03-18T09:00:16;101049.19;;;15.06;87.35
67840;BME280;54636;51.684;5.142;2023-03-18T09:02:41;101022.97;;;14.80;87.18
67840;BME280;54636;51.684;5.142;2023-03-18T09:05:07;101064.03;;;15.22;87.29
67840;BME280;54636;51.684;5.142;2023-03-18T09:07:32;101057.63;;;15.49;86.11
67840;BME280;54636;51.684;5.142;2023-03-18T09:09:57;101061.88;;;15.80;84.52
67840;BME280;54636;51.684;5.142;2023-03-18T09:12:23;101064.66;;;16.04;82.59
67840;BME280;54636;51.684;5.142;2023-03-18T09:14:48;101059.53;;;16.20;80.39
67840;BME280;54636;51.684;5.142;2023-03-18T09:17:14;101067.63;;;16.31;79.84
67840;BME280;54636;51.684;5.142;2023-03-18T09:19:40;101061.88;;;16.34;78.87
67840;BME280;54636;51.684;5.142;2023-03-18T09:22:05;101052.44;;;16.30;78.97
67840;BME280;54636;51.684;5.142;2023-03-18T09:24:31;101072.72;;;16.45;76.85
67840;BME280;54636;51.684;5.142;2023-03-18T09:26:56;101063.53;;;16.43;78.04
67840;BME280;54636;51.684;5.142;2023-03-18T09:29:24;101056.56;;;16.42;77.62
67840;BME280;54636;51.684;5.142;2023-03-18T09:31:49;101056.09;;;16.38;78.06
67840;BME280;54636;51.684;5.142;2023-03-18T09:34:19;101057.00;;;16.46;76.36
67840;BME280;54636;51.684;5.142;2023-03-18T09:36:44;101048.56;;;16.44;76.43
67840;BME280;54636;51.684;5.142;2023-03-18T09:39:16;101047.03;;;16.24;77.11
67840;BME280;54636;51.684;5.142;2023-03-18T09:44:36;101048.56;;;15.95;77.14
67840;BME280;54636;51.684;5.142;2023-03-18T09:52:41;101049.25;;;16.01;78.45
67840;BME280;54636;51.684;5.142;2023-03-18T09:57:45;101044.47;;;16.07;78.58
67840;BME280;54636;51.684;5.142;2023-03-18T10:02:52;101038.59;;;16.22;76.45
67840;BME280;54636;51.684;5.142;2023-03-18T10:05:27;101049.25;;;16.26;77.61
67840;BME280;54636;51.684;5.142;2023-03-18T10:07:57;101058.91;;;16.32;76.53
67840;BME280;54636;51.684;5.142;2023-03-18T10:10:41;101057.63;;;16.33;76.27
67840;BME280;54636;51.684;5.142;2023-03-18T10:15:44;101053.63;;;16.34;74.63
67840;BME280;54636;51.684;5.142;2023-03-18T10:18:19;101066.94;;;16.49;74.08
67840;BME280;54636;51.684;5.142;2023-03-18T10:26:22;101061.81;;;16.64;72.68
67840;BME280;54636;51.684;5.142;2023-03-18T10:29:17;101062.59;;;16.84;72.63
67840;BME280;54636;51.684;5.142;2023-03-18T10:34:40;101064.66;;;16.96;70.21
67840;BME280;54636;51.684;5.142;2023-03-18T10:37:16;101056.88;;;17.00;70.34
67840;BME280;54636;51.684;5.142;2023-03-18T10:39:43;101056.06;;;17.05;69.73
67840;BME280;54636;51.684;5.142;2023-03-18T10:42:24;101064.44;;;17.13;70.58
67840;BME280;54636;51.684;5.142;2023-03-18T10:44:50;101073.63;;;17.16;69.63
67840;BME280;54636;51.684;5.142;2023-03-18T10:47:32;101058.34;;;17.20;70.12
67840;BME280;54636;51.684;5.142;2023-03-18T10:52:52;101037.66;;;17.00;69.03
67840;BME280;54636;51.684;5.142;2023-03-18T10:55:23;101056.34;;;17.02;70.04
67840;BME280;54636;51.684;5.142;2023-03-18T10:57:49;101059.75;;;17.08;69.12
67840;BME280;54636;51.684;5.142;2023-03-18T11:00:31;101050.78;;;17.07;70.70
67840;BME280;54636;51.684;5.142;2023-03-18T11:02:57;101019.25;;;16.95;67.82
67840;BME280;54636;51.684;5.142;2023-03-18T11:05:50;101050.56;;;17.24;69.38
67840;BME280;54636;51.684;5.142;2023-03-18T11:08:37;101045.50;;;17.28;69.23
67840;BME280;54636;51.684;5.142;2023-03-18T11:11:15;101052.47;;;17.48;66.68
67840;BME280;54636;51.684;5.142;2023-03-18T11:13:48;101052.16;;;17.52;66.17
67840;BME280;54636;51.684;5.142;2023-03-18T11:18:49;101040.63;;;17.21;66.33
67840;BME280;54636;51.684;5.142;2023-03-18T11:21:15;101052.25;;;17.27;67.03
67840;BME280;54636;51.684;5.142;2023-03-18T11:23:57;101064.13;;;17.35;67.46
67840;BME280;54636;51.684;5.142;2023-03-18T11:26:55;101054.03;;;17.43;68.32
67840;BME280;54636;51.684;5.142;2023-03-18T11:29:25;101048.25;;;17.28;67.18
67840;BME280;54636;51.684;5.142;2023-03-18T11:32:00;101055.31;;;17.24;66.58
67840;BME280;54636;51.684;5.142;2023-03-18T11:34:28;101054.41;;;17.16;66.95
67840;BME280;54636;51.684;5.142;2023-03-18T11:36:56;101061.31;;;17.03;67.37
67840;BME280;54636;51.684;5.142;2023-03-18T11:39:28;101057.09;;;17.02;67.52
67840;BME280;54636;51.684;5.142;2023-03-18T11:41:55;101062.34;;;17.00;67.99
67840;BME280;54636;51.684;5.142;2023-03-18T11:44:28;101055.22;;;16.92;67.48
67840;BME280;54636;51.684;5.142;2023-03-18T11:49:26;101068.94;;;16.73;67.95
67840;BME280;54636;51.684;5.142;2023-03-18T11:57:41;101061.91;;;16.29;67.29
67840;BME280;54636;51.684;5.142;2023-03-18T12:12:06;101078.59;;;16.06;71.54
67840;BME280;54636;51.684;5.142;2023-03-18T12:14:39;101082.38;;;16.03;71.17
67840;BME280;54636;51.684;5.142;2023-03-18T12:20:36;101080.50;;;15.87;71.65
67840;BME280;54636;51.684;5.142;2023-03-18T12:23:20;101086.06;;;15.76;73.11
67840;BME280;54636;51.684;5.142;2023-03-18T12:26:02;101090.59;;;15.68;74.36
67840;BME280;54636;51.684;5.142;2023-03-18T12:28:41;101072.38;;;15.40;77.93
67840;BME280;54636;51.684;5.142;2023-03-18T12:31:37;101086.81;;;15.35;79.42
67840;BME280;54636;51.684;5.142;2023-03-18T12:34:18;101075.22;;;15.18;81.37
67840;BME280;54636;51.684;5.142;2023-03-18T12:39:51;101085.94;;;15.16;82.10
67840;BME280;54636;51.684;5.142;2023-03-18T12:45:14;101091.91;;;15.14;84.59
67840;BME280;54636;51.684;5.142;2023-03-18T12:47:52;101092.91;;;15.17;84.43
67840;BME280;54636;51.684;5.142;2023-03-18T12:50:22;101080.25;;;15.08;84.54
67840;BME280;54636;51.684;5.142;2023-03-18T12:53:02;101068.00;;;15.21;83.02
67840;BME280;54636;51.684;5.142;2023-03-18T12:55:39;101076.75;;;15.13;83.29
67840;BME280;54636;51.684;5.142;2023-03-18T12:58:12;101069.06;;;15.06;84.70
67840;BME280;54636;51.684;5.142;2023-03-18T13:00:45;101074.47;;;15.23;81.64
67840;BME280;54636;51.684;5.142;2023-03-18T13:03:31;101069.94;;;15.31;83.67
67840;BME280;54636;51.684;5.142;2023-03-18T13:06:29;101074.28;;;15.57;83.18
67840;BME280;54636;51.684;5.142;2023-03-18T13:09:06;101068.09;;;15.80;80.62
67840;BME280;54636;51.684;5.142;2023-03-18T13:16:55;101054.78;;;16.44;78.24
67840;BME280;54636;51.684;5.142;2023-03-18T13:19:23;101058.78;;;16.68;76.70
67840;BME280;54636;51.684;5.142;2023-03-18T13:27:56;101059.31;;;17.04;74.49
67840;BME280;54636;51.684;5.142;2023-03-18T13:44:26;101052.47;;;17.29;71.67
67840;BME280;54636;51.684;5.142;2023-03-18T13:47:01;101055.75;;;17.28;72.16
67840;BME280;54636;51.684;5.142;2023-03-18T13:49:30;101057.97;;;17.29;71.97
67840;BME280;54636;51.684;5.142;2023-03-18T13:51:58;101044.31;;;17.24;70.58
67840;BME280;54636;51.684;5.142;2023-03-18T13:54:33;101049.22;;;17.31;69.50
67840;BME280;54636;51.684;5.142;2023-03-18T14:02:43;101037.00;;;16.75;70.31
67840;BME280;54636;51.684;5.142;2023-03-18T14:05:42;101050.88;;;16.83;70.45
67840;BME280;54636;51.684;5.142;2023-03-18T14:16:25;101031.00;;;16.53;69.28
67840;BME280;54636;51.684;5.142;2023-03-18T14:19:13;101021.13;;;16.44;70.71
67840;BME280;54636;51.684;5.142;2023-03-18T14:21:46;101024.28;;;16.54;70.23
67840;BME280;54636;51.684;5.142;2023-03-18T14:29:25;100990.22;;;16.25;70.96
67840;BME280;54636;51.684;5.142;2023-03-18T14:32:01;101001.09;;;16.30;71.02
67840;BME280;54636;51.684;5.142;2023-03-18T14:34:52;100998.75;;;16.21;71.68
67840;BME280;54636;51.684;5.142;2023-03-18T14:37:29;101002.28;;;16.16;71.58
67840;BME280;54636;51.684;5.142;2023-03-18T14:40:12;100985.16;;;16.10;71.88
67840;BME280;54636;51.684;5.142;2023-03-18T14:42:49;100988.91;;;16.07;72.27
67840;BME280;54636;51.684;5.142;2023-03-18T14:45:31;101009.59;;;16.08;72.77